createdAt,value
2017-01-17T00:00:24.809Z,49.69
2017-01-17T00:01:34.966Z,49.6
2017-01-17T00:02:44.683Z,49.6
2017-01-17T00:03:54.013Z,49.69
2017-01-17T00:05:03.294Z,49.69
2017-01-17T00:06:13.447Z,49.69
2017-01-17T00:07:23.610Z,49.31
2017-01-17T00:08:32.893Z,49.5
2017-01-17T00:09:43.544Z,49.69
2017-01-17T00:10:53.256Z,49.6
2017-01-17T00:12:02.972Z,49.5
2017-01-17T00:13:12.682Z,49.4
2017-01-17T00:14:22.403Z,49.5
2017-01-17T00:15:32.168Z,49.5
2017-01-17T00:16:41.885Z,49.5
2017-01-17T00:17:51.170Z,49.79
2017-01-17T00:19:00.890Z,50.07
2017-01-17T00:20:11.476Z,49.6
2017-01-17T00:21:21.685Z,49.5
2017-01-17T00:22:30.970Z,49.6
2017-01-17T00:23:40.684Z,49.69
2017-01-17T00:24:49.961Z,49.69
2017-01-17T00:26:00.554Z,50.07
2017-01-17T00:27:10.855Z,50.26
2017-01-17T00:28:20.132Z,49.88
2017-01-17T00:29:30.285Z,49.79
2017-01-17T00:30:40.002Z,49.88
2017-01-17T00:31:49.723Z,49.98
2017-01-17T00:33:00.800Z,49.6
2017-01-17T00:34:10.517Z,49.69
2017-01-17T00:35:20.703Z,49.6
2017-01-17T00:36:30.864Z,49.69
2017-01-17T00:37:40.145Z,49.79
2017-01-17T00:38:49.914Z,49.69
2017-01-17T00:40:00.091Z,49.5
2017-01-17T00:41:10.240Z,49.79
2017-01-17T00:42:20.393Z,49.69
2017-01-17T00:43:30.107Z,50.07
2017-01-17T00:44:40.311Z,50.17
2017-01-17T00:45:50.037Z,49.88
2017-01-17T00:46:59.761Z,49.86
2017-01-17T00:48:09.919Z,49.88
2017-01-17T00:49:20.511Z,49.76
2017-01-17T00:50:30.376Z,50.24
2017-01-17T00:51:39.657Z,50.34
2017-01-17T00:52:48.935Z,49.95
2017-01-17T00:53:58.648Z,49.95
2017-01-17T00:55:08.361Z,50.05
2017-01-17T00:56:18.130Z,50.34
2017-01-17T00:57:28.719Z,50.43
2017-01-17T00:58:38.880Z,50.15
2017-01-17T00:59:48.597Z,50.62
2017-01-17T01:00:58.754Z,50.52
2017-01-17T01:02:09.107Z,50.46
2017-01-17T01:03:18.824Z,50.56
2017-01-17T01:04:28.545Z,50.34
2017-01-17T01:05:38.262Z,50.34
2017-01-17T01:06:48.419Z,50.24
2017-01-17T01:07:58.189Z,50.52
2017-01-17T01:09:07.494Z,50.24
2017-01-17T01:10:17.215Z,50.43
2017-01-17T01:11:26.936Z,50.43
2017-01-17T01:12:36.653Z,50.34
2017-01-17T01:13:46.422Z,50.24
2017-01-17T01:14:55.707Z,51.01
2017-01-17T01:16:04.992Z,50.81
2017-01-17T01:17:14.705Z,50.62
2017-01-17T01:18:24.424Z,50.72
2017-01-17T01:19:34.636Z,50.72
2017-01-17T01:20:44.813Z,50.62
2017-01-17T01:21:55.405Z,50.72
2017-01-17T01:23:05.123Z,51.29
2017-01-17T01:24:15.280Z,51.1
2017-01-17T01:25:25.633Z,50.91
2017-01-17T01:26:35.350Z,51.1
2017-01-17T01:27:45.067Z,50.91
2017-01-17T01:28:54.368Z,51.29
2017-01-17T01:30:04.090Z,51.39
2017-01-17T01:31:13.858Z,51.39
2017-01-17T01:32:23.572Z,51.2
2017-01-17T01:33:34.165Z,51.01
2017-01-17T01:34:44.326Z,51.39
2017-01-17T01:35:54.039Z,51.1
2017-01-17T01:37:05.116Z,51.29
2017-01-17T01:38:15.709Z,51.01
2017-01-17T01:39:25.863Z,50.81
2017-01-17T01:40:35.584Z,51.2
2017-01-17T01:41:45.325Z,51.01
2017-01-17T01:42:55.550Z,51.01
2017-01-17T01:44:06.143Z,51.39
2017-01-17T01:45:16.304Z,51.77
2017-01-17T01:46:26.462Z,51.68
2017-01-17T01:47:35.738Z,51.77
2017-01-17T01:48:46.043Z,51.77
2017-01-17T01:49:56.640Z,51.77
2017-01-17T01:51:06.793Z,51.29
2017-01-17T01:52:16.515Z,51.58
2017-01-17T01:53:26.671Z,51.58
2017-01-17T01:54:36.881Z,51.39
2017-01-17T01:55:47.038Z,51.68
2017-01-17T01:56:57.197Z,51.58
2017-01-17T01:58:06.920Z,51.29
2017-01-17T01:59:16.638Z,51.29
2017-01-17T02:00:26.403Z,51.58
2017-01-17T02:01:36.584Z,51.58
2017-01-17T02:02:47.181Z,51.87
2017-01-17T02:03:56.454Z,51.2
2017-01-17T02:05:06.191Z,51.87
2017-01-17T02:06:16.402Z,51.77
2017-01-17T02:07:26.126Z,51.68
2017-01-17T02:08:35.407Z,51.1
2017-01-17T02:09:45.125Z,51.39
2017-01-17T02:10:55.293Z,51.2
2017-01-17T02:12:04.630Z,51.39
2017-01-17T02:13:14.352Z,51.39
2017-01-17T02:14:24.073Z,51.68
2017-01-17T02:15:34.678Z,51.39
2017-01-17T02:16:44.403Z,51.68
2017-01-17T02:17:54.164Z,51.2
2017-01-17T02:19:04.321Z,51.77
2017-01-17T02:20:14.479Z,51.36
2017-01-17T02:21:23.783Z,51.39
2017-01-17T02:22:34.381Z,51.1
2017-01-17T02:23:43.706Z,51.2
2017-01-17T02:24:53.427Z,51.68
2017-01-17T02:26:03.148Z,51.65
2017-01-17T02:27:13.302Z,51.56
2017-01-17T02:28:23.455Z,51.48
2017-01-17T02:29:32.791Z,51.46
2017-01-17T02:30:42.069Z,51.56
2017-01-17T02:31:51.354Z,51.46
2017-01-17T02:33:01.075Z,51.36
2017-01-17T02:34:11.675Z,51.75
2017-01-17T02:35:21.441Z,51.75
2017-01-17T02:36:31.594Z,51.84
2017-01-17T02:37:42.183Z,51.75
2017-01-17T02:38:52.784Z,51.84
2017-01-17T02:40:03.822Z,51.75
2017-01-17T02:41:14.035Z,51.93
2017-01-17T02:42:24.636Z,51.75
2017-01-17T02:43:34.358Z,51.75
2017-01-17T02:44:44.087Z,51.84
2017-01-17T02:45:53.812Z,51.93
2017-01-17T02:47:03.593Z,52.32
2017-01-17T02:48:13.758Z,52.42
2017-01-17T02:49:23.483Z,52.22
2017-01-17T02:50:33.197Z,52.13
2017-01-17T02:51:43.362Z,52.61
2017-01-17T02:52:53.823Z,52.13
2017-01-17T02:54:03.837Z,52.51
2017-01-17T02:55:13.119Z,52.42
2017-01-17T02:56:22.847Z,52.32
2017-01-17T02:57:32.568Z,52.42
2017-01-17T02:58:42.345Z,52.32
2017-01-17T02:59:52.070Z,52.51
2017-01-17T03:01:01.799Z,52.51
2017-01-17T03:02:11.521Z,52.13
2017-01-17T03:03:21.714Z,52.51
2017-01-17T03:04:31.922Z,52.51
2017-01-17T03:05:41.644Z,52.51
2017-01-17T03:06:51.370Z,52.42
2017-01-17T03:08:00.654Z,52.22
2017-01-17T03:09:10.371Z,52.03
2017-01-17T03:10:20.613Z,52.13
2017-01-17T03:11:30.815Z,52.13
2017-01-17T03:12:40.983Z,52.51
2017-01-17T03:13:50.713Z,52.42
2017-01-17T03:15:00.442Z,52.03
2017-01-17T03:16:09.766Z,52.51
2017-01-17T03:17:19.496Z,52.13
2017-01-17T03:18:28.777Z,52.51
2017-01-17T03:19:38.950Z,52.51
2017-01-17T03:20:49.123Z,52.51
2017-01-17T03:21:59.365Z,52.13
2017-01-17T03:23:09.106Z,52.51
2017-01-17T03:24:18.839Z,52.61
2017-01-17T03:25:28.144Z,52.61
2017-01-17T03:26:37.877Z,52.51
2017-01-17T03:27:48.095Z,52.51
2017-01-17T03:28:58.700Z,52.13
2017-01-17T03:30:08.869Z,51.93
2017-01-17T03:31:19.031Z,52.22
2017-01-17T03:32:29.636Z,52.22
2017-01-17T03:33:39.849Z,52.03
2017-01-17T03:34:50.006Z,52.22
2017-01-17T03:35:59.303Z,52.03
2017-01-17T03:37:09.036Z,52.22
2017-01-17T03:38:18.326Z,52.22
2017-01-17T03:39:27.655Z,52.22
2017-01-17T03:40:38.260Z,52.22
2017-01-17T03:41:47.550Z,52.03
2017-01-17T03:42:57.714Z,52.32
2017-01-17T03:44:07.880Z,52.32
2017-01-17T03:45:17.653Z,52.22
2017-01-17T03:46:27.819Z,52.22
2017-01-17T03:47:37.103Z,52.32
2017-01-17T03:48:47.272Z,52.22
2017-01-17T03:49:56.998Z,52.03
2017-01-17T03:51:06.323Z,52.13
2017-01-17T03:52:16.060Z,52.32
2017-01-17T03:53:25.793Z,52.32
2017-01-17T03:54:35.522Z,52.13
2017-01-17T03:55:44.807Z,52.51
2017-01-17T03:56:54.573Z,52.32
2017-01-17T03:58:04.298Z,52.03
2017-01-17T03:59:14.027Z,52.03
2017-01-17T04:00:23.313Z,52.13
2017-01-17T04:01:33.030Z,52.39
2017-01-17T04:02:43.719Z,52.22
2017-01-17T04:03:53.461Z,52.2
2017-01-17T04:05:03.177Z,52.29
2017-01-17T04:06:13.339Z,52.32
2017-01-17T04:07:23.068Z,52.39
2017-01-17T04:08:32.405Z,52.42
2017-01-17T04:09:42.598Z,52.42
2017-01-17T04:10:52.751Z,52.39
2017-01-17T04:12:02.033Z,52.32
2017-01-17T04:13:11.770Z,52.7
2017-01-17T04:14:21.987Z,53.16
2017-01-17T04:15:31.713Z,52.89
2017-01-17T04:16:41.886Z,52.89
2017-01-17T04:17:52.071Z,53.06
2017-01-17T04:19:02.248Z,52.99
2017-01-17T04:20:12.461Z,53.08
2017-01-17T04:21:21.742Z,52.96
2017-01-17T04:22:31.460Z,53.16
2017-01-17T04:23:40.745Z,52.87
2017-01-17T04:24:50.906Z,53.06
2017-01-17T04:26:00.235Z,52.96
2017-01-17T04:27:09.957Z,53.06
2017-01-17T04:28:20.122Z,53.16
2017-01-17T04:29:30.287Z,53.16
2017-01-17T04:30:40.012Z,52.96
2017-01-17T04:31:49.793Z,52.96
2017-01-17T04:32:59.090Z,53.06
2017-01-17T04:34:09.252Z,53.16
2017-01-17T04:35:18.973Z,53.16
2017-01-17T04:36:29.130Z,53.06
2017-01-17T04:37:39.335Z,53.06
2017-01-17T04:38:49.496Z,52.87
2017-01-17T04:39:59.217Z,53.16
2017-01-17T04:41:08.935Z,52.89
2017-01-17T04:42:18.656Z,52.96
2017-01-17T04:43:28.437Z,53.06
2017-01-17T04:44:39.026Z,52.96
2017-01-17T04:45:48.756Z,53.06
2017-01-17T04:46:58.485Z,52.87
2017-01-17T04:48:07.766Z,52.87
2017-01-17T04:49:17.535Z,52.58
2017-01-17T04:50:27.260Z,52.67
2017-01-17T04:51:36.990Z,52.87
2017-01-17T04:52:46.271Z,52.77
2017-01-17T04:53:55.992Z,52.87
2017-01-17T04:55:06.213Z,52.87
2017-01-17T04:56:15.502Z,52.96
2017-01-17T04:57:26.140Z,52.96
2017-01-17T04:58:35.865Z,52.96
2017-01-17T04:59:46.478Z,53.34
2017-01-17T05:00:55.807Z,53.16
2017-01-17T05:02:05.536Z,53.16
2017-01-17T05:03:15.694Z,53.16
2017-01-17T05:04:24.975Z,53.34
2017-01-17T05:05:34.256Z,53.44
2017-01-17T05:06:44.513Z,53.16
2017-01-17T05:07:54.246Z,53.25
2017-01-17T05:09:04.412Z,53.44
2017-01-17T05:10:13.689Z,53.25
2017-01-17T05:11:22.975Z,53.34
2017-01-17T05:12:32.743Z,53.34
2017-01-17T05:13:42.464Z,52.96
2017-01-17T05:14:52.199Z,53.44
2017-01-17T05:16:01.919Z,53.44
2017-01-17T05:17:13.404Z,53.73
2017-01-17T05:18:22.737Z,53.82
2017-01-17T05:19:32.454Z,53.82
2017-01-17T05:20:41.739Z,53.73
2017-01-17T05:21:51.908Z,53.44
2017-01-17T05:23:02.074Z,53.53
2017-01-17T05:24:11.405Z,53.63
2017-01-17T05:25:21.604Z,53.34
2017-01-17T05:26:31.333Z,53.44
2017-01-17T05:27:41.050Z,53.44
2017-01-17T05:28:51.203Z,53.34
2017-01-17T05:30:01.429Z,53.16
2017-01-17T05:31:10.709Z,53.25
2017-01-17T05:32:20.439Z,53.44
2017-01-17T05:33:31.044Z,53.63
2017-01-17T05:34:40.761Z,53.25
2017-01-17T05:35:50.099Z,53.73
2017-01-17T05:37:00.704Z,53.82
2017-01-17T05:38:10.429Z,53.92
2017-01-17T05:39:20.593Z,53.92
2017-01-17T05:40:30.747Z,53.82
2017-01-17T05:41:40.508Z,53.63
2017-01-17T05:42:50.721Z,53.63
2017-01-17T05:44:00.879Z,53.53
2017-01-17T05:45:10.600Z,53.16
2017-01-17T05:46:21.201Z,53.06
2017-01-17T05:47:30.966Z,53.06
2017-01-17T05:48:40.691Z,53.44
2017-01-17T05:49:49.972Z,53.25
2017-01-17T05:51:00.142Z,53.44
2017-01-17T05:52:09.859Z,53.44
2017-01-17T05:53:19.636Z,53.06
2017-01-17T05:54:30.233Z,53.06
2017-01-17T05:55:40.834Z,52.96
2017-01-17T05:56:50.999Z,53.06
2017-01-17T05:58:00.280Z,52.87
2017-01-17T05:59:09.646Z,53.06
2017-01-17T06:00:19.359Z,52.87
2017-01-17T06:01:29.536Z,52.87
2017-01-17T06:02:39.261Z,52.87
2017-01-17T06:03:49.422Z,53.06
2017-01-17T06:04:59.195Z,53.06
2017-01-17T06:06:10.237Z,52.96
2017-01-17T06:07:19.553Z,52.96
2017-01-17T06:08:29.267Z,53.16
2017-01-17T06:09:39.866Z,52.87
2017-01-17T06:10:49.637Z,52.87
2017-01-17T06:11:59.787Z,52.48
2017-01-17T06:13:09.073Z,52.48
2017-01-17T06:14:18.785Z,52.77
2017-01-17T06:15:28.962Z,52.67
2017-01-17T06:16:38.767Z,52.67
2017-01-17T06:17:48.493Z,52.29
2017-01-17T06:18:58.250Z,52.67
2017-01-17T06:20:08.415Z,52.01
2017-01-17T06:21:17.696Z,52.48
2017-01-17T06:22:27.478Z,52.29
2017-01-17T06:23:36.758Z,52.48
2017-01-17T06:24:46.468Z,52.48
2017-01-17T06:25:56.220Z,52.2
2017-01-17T06:27:07.266Z,52.2
2017-01-17T06:28:17.483Z,52.39
2017-01-17T06:29:27.648Z,52.2
2017-01-17T06:30:37.361Z,52.2
2017-01-17T06:31:47.527Z,52.39
2017-01-17T06:32:57.248Z,52.39
2017-01-17T06:34:07.025Z,52.39
2017-01-17T06:35:16.754Z,52.29
2017-01-17T06:36:27.356Z,52.29
2017-01-17T06:37:37.521Z,52.48
2017-01-17T06:38:47.238Z,52.1
2017-01-17T06:39:57.456Z,52.29
2017-01-17T06:41:07.620Z,52.1
2017-01-17T06:42:17.785Z,52.2
2017-01-17T06:43:27.958Z,52.29
2017-01-17T06:44:38.116Z,52.2
2017-01-17T06:45:47.893Z,52.1
2017-01-17T06:46:57.614Z,52.29
2017-01-17T06:48:08.219Z,52.2
2017-01-17T06:49:17.948Z,52.1
2017-01-17T06:50:28.106Z,52.1
2017-01-17T06:51:37.459Z,52.1
2017-01-17T06:52:46.748Z,52.1
2017-01-17T06:53:56.473Z,52.48
2017-01-17T06:55:06.198Z,52.48
2017-01-17T06:56:15.487Z,52.48
2017-01-17T06:57:24.853Z,52.48
2017-01-17T06:58:35.014Z,52.39
2017-01-17T06:59:45.624Z,52.39
2017-01-17T07:00:55.784Z,52.01
2017-01-17T07:02:05.514Z,52.1
2017-01-17T07:03:15.279Z,52.2
2017-01-17T07:04:25.032Z,52.2
2017-01-17T07:05:34.753Z,52.1
2017-01-17T07:06:44.482Z,52.01
2017-01-17T07:07:54.207Z,52.2
2017-01-17T07:09:04.420Z,52.1
2017-01-17T07:10:14.142Z,52.2
2017-01-17T07:11:23.867Z,52.1
2017-01-17T07:12:34.468Z,52.1
2017-01-17T07:13:44.193Z,52.1
2017-01-17T07:14:54.846Z,52.01
2017-01-17T07:16:05.444Z,52.01
2017-01-17T07:17:15.169Z,52.48
2017-01-17T07:18:26.215Z,52.39
2017-01-17T07:19:35.499Z,52.1
2017-01-17T07:20:45.708Z,52.48
2017-01-17T07:21:55.434Z,52.36
2017-01-17T07:23:05.167Z,52.36
2017-01-17T07:24:14.883Z,52.39
2017-01-17T07:25:24.603Z,52.39
2017-01-17T07:26:34.374Z,52.55
2017-01-17T07:27:44.103Z,52.55
2017-01-17T07:28:53.829Z,51.81
2017-01-17T07:30:03.577Z,51.81
2017-01-17T07:31:13.307Z,51.79
2017-01-17T07:32:23.076Z,51.72
2017-01-17T07:33:32.813Z,51.89
2017-01-17T07:34:42.094Z,51.89
2017-01-17T07:35:52.259Z,51.91
2017-01-17T07:37:02.433Z,51.98
2017-01-17T07:38:12.657Z,51.6
2017-01-17T07:39:21.943Z,51.79
2017-01-17T07:40:31.660Z,51.5
2017-01-17T07:41:41.817Z,51.7
2017-01-17T07:42:51.546Z,51.79
2017-01-17T07:44:01.764Z,51.6
2017-01-17T07:45:11.480Z,51.7
2017-01-17T07:46:22.082Z,51.6
2017-01-17T07:47:32.243Z,51.89
2017-01-17T07:48:42.836Z,51.91
2017-01-17T07:49:52.173Z,51.89
2017-01-17T07:51:01.898Z,51.89
2017-01-17T07:52:12.512Z,51.72
2017-01-17T07:53:22.241Z,51.7
2017-01-17T07:54:31.970Z,51.79
2017-01-17T07:55:41.303Z,51.6
2017-01-17T07:56:51.040Z,51.79
2017-01-17T07:58:00.325Z,51.6
2017-01-17T07:59:09.606Z,51.7
2017-01-17T08:00:19.331Z,51.6
2017-01-17T08:01:29.545Z,51.98
2017-01-17T08:02:38.825Z,51.89
2017-01-17T08:03:49.426Z,51.89
2017-01-17T08:04:59.588Z,51.79
2017-01-17T08:06:09.749Z,51.62
2017-01-17T08:07:19.510Z,51.5
2017-01-17T08:08:29.239Z,51.6
2017-01-17T08:09:38.952Z,51.98
2017-01-17T08:10:48.678Z,51.89
2017-01-17T08:11:59.019Z,51.5
2017-01-17T08:13:10.388Z,51.21
2017-01-17T08:14:21.129Z,51.91
2017-01-17T08:15:32.438Z,51.5
2017-01-17T08:16:43.991Z,51.5
2017-01-17T08:17:54.692Z,51.41
2017-01-17T08:19:05.511Z,51.5
2017-01-17T08:20:15.163Z,51.41
2017-01-17T08:21:25.624Z,51.79
2017-01-17T08:22:35.789Z,51.5
2017-01-17T08:23:45.518Z,51.31
2017-01-17T08:24:55.295Z,51.31
2017-01-17T08:26:04.605Z,51.31
2017-01-17T08:27:14.330Z,51.24
2017-01-17T08:28:24.050Z,51.5
2017-01-17T08:29:34.208Z,51.53
2017-01-17T08:30:44.410Z,51.5
2017-01-17T08:31:53.694Z,51.43
2017-01-17T08:33:03.855Z,51.5
2017-01-17T08:34:13.572Z,51.34
2017-01-17T08:35:22.854Z,51.81
2017-01-17T08:36:32.183Z,51.72
2017-01-17T08:37:41.492Z,51.24
2017-01-17T08:38:51.221Z,51.34
2017-01-17T08:40:01.378Z,51.24
2017-01-17T08:41:11.548Z,51.24
2017-01-17T08:42:22.196Z,51.24
2017-01-17T08:43:31.913Z,51.05
2017-01-17T08:44:41.642Z,51.15
2017-01-17T08:45:51.364Z,50.76
2017-01-17T08:47:00.645Z,50.76
2017-01-17T08:48:09.978Z,50.67
2017-01-17T08:49:19.707Z,51.05
2017-01-17T08:50:29.880Z,50.86
2017-01-17T08:51:40.045Z,50.67
2017-01-17T08:52:49.330Z,50.76
2017-01-17T08:53:59.543Z,50.76
2017-01-17T08:55:09.708Z,50.67
2017-01-17T08:56:19.874Z,50.67
2017-01-17T08:57:29.595Z,50.76
2017-01-17T08:58:38.888Z,50.57
2017-01-17T08:59:49.121Z,50.76
2017-01-17T09:00:58.842Z,50.48
2017-01-17T09:02:08.571Z,50.67
2017-01-17T09:03:19.205Z,50.76
2017-01-17T09:04:28.933Z,50.76
2017-01-17T09:05:38.707Z,50.67
2017-01-17T09:06:48.424Z,50.67
2017-01-17T09:07:58.141Z,50.67
2017-01-17T09:09:09.181Z,50.57
2017-01-17T09:10:19.352Z,50.38
2017-01-17T09:11:29.717Z,50.86
2017-01-17T09:12:39.442Z,50.95
2017-01-17T09:13:49.607Z,50.86
2017-01-17T09:14:59.324Z,50.57
2017-01-17T09:16:09.073Z,50.57
2017-01-17T09:17:18.842Z,50.67
2017-01-17T09:18:28.571Z,50.57
2017-01-17T09:19:38.289Z,50.76
2017-01-17T09:20:47.570Z,50.86
2017-01-17T09:21:57.735Z,50.86
2017-01-17T09:23:08.383Z,50.57
2017-01-17T09:24:18.105Z,50.57
2017-01-17T09:25:27.843Z,50.57
2017-01-17T09:26:37.128Z,50
2017-01-17T09:27:47.289Z,50.09
2017-01-17T09:28:56.622Z,50.19
2017-01-17T09:30:06.347Z,50.48
2017-01-17T09:31:16.508Z,50.38
2017-01-17T09:32:25.793Z,50.38
2017-01-17T09:33:35.515Z,50.19
2017-01-17T09:34:45.728Z,50.38
2017-01-17T09:35:55.013Z,50.38
2017-01-17T09:37:05.174Z,50
2017-01-17T09:38:15.327Z,49.8
2017-01-17T09:39:25.484Z,49.8
2017-01-17T09:40:35.709Z,49.8
2017-01-17T09:41:45.451Z,49.8
2017-01-17T09:42:56.056Z,49.8
2017-01-17T09:44:05.777Z,49.8
2017-01-17T09:45:15.502Z,50.09
2017-01-17T09:46:25.275Z,50.09
2017-01-17T09:47:34.997Z,50
2017-01-17T09:48:44.726Z,49.71
2017-01-17T09:49:54.007Z,49.62
2017-01-17T09:51:03.804Z,49.62
2017-01-17T09:52:13.573Z,49.62
2017-01-17T09:53:23.730Z,49.52
2017-01-17T09:54:33.012Z,49.52
2017-01-17T09:55:43.177Z,49.9
2017-01-17T09:56:52.898Z,50
2017-01-17T09:58:03.155Z,49.33
2017-01-17T09:59:13.316Z,49.52
2017-01-17T10:00:23.914Z,49.52
2017-01-17T10:01:33.639Z,48.95
2017-01-17T10:02:42.928Z,48.95
2017-01-17T10:03:53.185Z,48.85
2017-01-17T10:05:02.490Z,48.47
2017-01-17T10:06:12.659Z,48.66
2017-01-17T10:07:22.385Z,48.57
2017-01-17T10:08:32.117Z,48.38
2017-01-17T10:09:43.211Z,48.57
2017-01-17T10:10:52.936Z,48.28
2017-01-17T10:12:02.665Z,48.28
2017-01-17T10:13:12.835Z,48.47
2017-01-17T10:14:22.563Z,48.38
2017-01-17T10:15:32.777Z,48.38
2017-01-17T10:16:42.062Z,48.28
2017-01-17T10:17:51.782Z,48.38
2017-01-17T10:19:01.504Z,48.38
2017-01-17T10:20:10.784Z,48.18
2017-01-17T10:21:20.119Z,48.18
2017-01-17T10:22:29.848Z,48.09
2017-01-17T10:23:39.129Z,48.28
2017-01-17T10:24:49.294Z,47.99
2017-01-17T10:25:58.576Z,48.18
2017-01-17T10:27:08.789Z,48.18
2017-01-17T10:28:18.506Z,47.99
2017-01-17T10:29:28.667Z,47.42
2017-01-17T10:30:38.384Z,47.52
2017-01-17T10:31:47.661Z,47.42
2017-01-17T10:32:56.990Z,47.61
2017-01-17T10:34:06.712Z,47.52
2017-01-17T10:35:16.428Z,47.42
2017-01-17T10:36:25.710Z,47.61
2017-01-17T10:37:35.431Z,47.03
2017-01-17T10:38:45.648Z,47.23
2017-01-17T10:39:55.373Z,47.23
2017-01-17T10:41:05.094Z,47.03
2017-01-17T10:42:14.812Z,47.13
2017-01-17T10:43:24.541Z,46.84
2017-01-17T10:44:35.190Z,47.13
2017-01-17T10:45:45.351Z,47.71
2017-01-17T10:46:54.636Z,46.84
2017-01-17T10:48:04.802Z,46.75
2017-01-17T10:49:14.519Z,47.42
2017-01-17T10:50:24.732Z,47.13
2017-01-17T10:51:34.897Z,47.13
2017-01-17T10:52:44.179Z,47.03
2017-01-17T10:53:54.335Z,47.03
2017-01-17T10:55:04.053Z,47.13
2017-01-17T10:56:14.269Z,47.03
2017-01-17T10:57:24.439Z,46.84
2017-01-17T10:58:34.188Z,46.84
2017-01-17T10:59:44.357Z,46.94
2017-01-17T11:00:54.519Z,46.66
2017-01-17T11:02:04.772Z,46.75
2017-01-17T11:03:14.505Z,46.37
2017-01-17T11:04:23.790Z,46.75
2017-01-17T11:05:33.071Z,46.46
2017-01-17T11:06:43.233Z,46.66
2017-01-17T11:07:53.002Z,46.56
2017-01-17T11:09:03.616Z,46.46
2017-01-17T11:10:13.364Z,46.46
2017-01-17T11:11:22.645Z,46.56
2017-01-17T11:12:32.367Z,46.66
2017-01-17T11:13:41.696Z,46.46
2017-01-17T11:14:51.865Z,46.46
2017-01-17T11:16:01.598Z,46.37
2017-01-17T11:17:11.315Z,46.56
2017-01-17T11:18:21.045Z,46.56
2017-01-17T11:19:31.405Z,46.44
2017-01-17T11:20:41.571Z,46.56
2017-01-17T11:21:51.736Z,46.92
2017-01-17T11:23:01.017Z,46.06
2017-01-17T11:24:11.187Z,46.72
2017-01-17T11:25:21.404Z,46.44
2017-01-17T11:26:31.125Z,46.06
2017-01-17T11:27:40.845Z,46.06
2017-01-17T11:28:51.008Z,46.17
2017-01-17T11:30:00.288Z,46.46
2017-01-17T11:31:10.062Z,46.27
2017-01-17T11:32:19.783Z,46.15
2017-01-17T11:33:30.380Z,46.06
2017-01-17T11:34:40.109Z,46.06
2017-01-17T11:35:49.835Z,45.77
2017-01-17T11:36:59.608Z,46.06
2017-01-17T11:38:09.329Z,45.96
2017-01-17T11:39:20.366Z,45.58
2017-01-17T11:40:29.651Z,45.87
2017-01-17T11:41:38.936Z,45.58
2017-01-17T11:42:49.142Z,45.58
2017-01-17T11:43:58.859Z,45.58
2017-01-17T11:45:08.140Z,45.67
2017-01-17T11:46:18.305Z,45.67
2017-01-17T11:47:28.027Z,45.58
2017-01-17T11:48:37.800Z,45.77
2017-01-17T11:49:47.525Z,45.67
2017-01-17T11:50:57.251Z,45.58
2017-01-17T11:52:07.419Z,45.58
2017-01-17T11:53:17.145Z,45.58
2017-01-17T11:54:26.918Z,45.58
2017-01-17T11:55:37.103Z,45.58
2017-01-17T11:56:46.820Z,45.39
2017-01-17T11:57:56.549Z,45.58
2017-01-17T11:59:06.262Z,45.39
2017-01-17T12:00:16.039Z,45.58
2017-01-17T12:01:26.204Z,45.67
2017-01-17T12:02:36.374Z,45.58
2017-01-17T12:03:46.094Z,45.58
2017-01-17T12:04:55.811Z,45.48
2017-01-17T12:06:05.589Z,45.29
2017-01-17T12:07:15.314Z,45.48
2017-01-17T12:08:25.479Z,45.39
2017-01-17T12:09:35.204Z,45.39
2017-01-17T12:10:44.925Z,45.39
2017-01-17T12:11:55.581Z,45.2
2017-01-17T12:13:05.308Z,45.2
2017-01-17T12:14:15.024Z,45.1
2017-01-17T12:15:24.302Z,45.48
2017-01-17T12:16:34.023Z,45.48
2017-01-17T12:17:43.804Z,45.48
2017-01-17T12:18:53.961Z,45.58
2017-01-17T12:20:04.118Z,45.48
2017-01-17T12:21:13.848Z,45.48
2017-01-17T12:22:23.129Z,45.48
2017-01-17T12:23:32.462Z,45.48
2017-01-17T12:24:42.210Z,45.48
2017-01-17T12:25:51.492Z,45.48
2017-01-17T12:27:01.213Z,45.48
2017-01-17T12:28:10.494Z,45.58
2017-01-17T12:29:20.699Z,45.29
2017-01-17T12:30:29.976Z,45.2
2017-01-17T12:31:39.258Z,44.91
2017-01-17T12:32:48.979Z,44.91
2017-01-17T12:33:58.284Z,44.72
2017-01-17T12:35:08.493Z,45.1
2017-01-17T12:36:18.674Z,44.91
2017-01-17T12:37:28.405Z,45.01
2017-01-17T12:38:38.132Z,45.01
2017-01-17T12:39:48.733Z,44.72
2017-01-17T12:40:58.531Z,44.72
2017-01-17T12:42:08.248Z,44.62
2017-01-17T12:43:17.529Z,44.62
2017-01-17T12:44:27.694Z,44.81
2017-01-17T12:45:37.855Z,44.72
2017-01-17T12:46:47.644Z,44.72
2017-01-17T12:47:57.817Z,44.81
2017-01-17T12:49:07.973Z,44.81
2017-01-17T12:50:17.687Z,44.81
2017-01-17T12:51:27.848Z,44.72
2017-01-17T12:52:37.633Z,44.91
2017-01-17T12:53:46.914Z,44.91
2017-01-17T12:54:57.530Z,44.81
2017-01-17T12:56:06.811Z,44.72
2017-01-17T12:57:16.096Z,44.81
2017-01-17T12:58:25.877Z,44.81
2017-01-17T12:59:36.050Z,44.7
2017-01-17T13:00:46.654Z,44.72
2017-01-17T13:01:56.811Z,44.81
2017-01-17T13:03:06.533Z,44.89
2017-01-17T13:04:16.742Z,44.89
2017-01-17T13:05:26.023Z,44.81
2017-01-17T13:06:36.184Z,44.81
2017-01-17T13:07:46.344Z,44.79
2017-01-17T13:08:56.061Z,44.79
2017-01-17T13:10:06.718Z,44.79
2017-01-17T13:11:16.439Z,44.7
2017-01-17T13:12:26.160Z,44.62
2017-01-17T13:13:36.321Z,44.6
2017-01-17T13:14:46.082Z,44.98
2017-01-17T13:15:56.291Z,44.79
2017-01-17T13:17:06.008Z,44.79
2017-01-17T13:18:15.730Z,44.79
2017-01-17T13:19:25.918Z,44.89
2017-01-17T13:20:36.083Z,44.7
2017-01-17T13:21:47.163Z,44.6
2017-01-17T13:22:57.325Z,44.7
2017-01-17T13:24:06.605Z,44.7
2017-01-17T13:25:16.330Z,44.79
2017-01-17T13:26:26.943Z,44.6
2017-01-17T13:27:37.152Z,44.79
2017-01-17T13:28:47.313Z,44.79
2017-01-17T13:29:57.034Z,44.79
2017-01-17T13:31:07.219Z,44.79
2017-01-17T13:32:16.941Z,44.89
2017-01-17T13:33:27.585Z,44.98
2017-01-17T13:34:38.202Z,44.89
2017-01-17T13:35:47.923Z,44.89
2017-01-17T13:36:58.092Z,45.08
2017-01-17T13:38:07.820Z,44.51
2017-01-17T13:39:17.153Z,44.89
2017-01-17T13:40:27.319Z,44.98
2017-01-17T13:41:37.035Z,44.89
2017-01-17T13:42:47.184Z,44.89
2017-01-17T13:43:56.909Z,44.98
2017-01-17T13:45:07.550Z,44.98
2017-01-17T13:46:17.715Z,44.51
2017-01-17T13:47:27.876Z,44.98
2017-01-17T13:48:37.593Z,45.17
2017-01-17T13:49:46.874Z,44.41
2017-01-17T13:50:56.642Z,44.98
2017-01-17T13:52:06.803Z,44.41
2017-01-17T13:53:16.529Z,44.41
2017-01-17T13:54:26.698Z,44.51
2017-01-17T13:55:36.419Z,44.6
2017-01-17T13:56:47.084Z,44.31
2017-01-17T13:57:57.261Z,44.41
2017-01-17T13:59:06.990Z,44.41
2017-01-17T14:00:16.711Z,44.31
2017-01-17T14:01:25.992Z,44.12
2017-01-17T14:02:35.356Z,44.12
2017-01-17T14:03:45.078Z,44.12
2017-01-17T14:04:54.790Z,44.12
2017-01-17T14:06:05.395Z,44.12
2017-01-17T14:07:15.117Z,44.31
2017-01-17T14:08:25.333Z,44.12
2017-01-17T14:09:35.938Z,44.6
2017-01-17T14:10:46.099Z,44.51
2017-01-17T14:11:55.812Z,44.98
2017-01-17T14:13:05.973Z,44.41
2017-01-17T14:14:16.186Z,45.08
2017-01-17T14:15:25.463Z,44.98
2017-01-17T14:16:35.636Z,44.6
2017-01-17T14:17:44.913Z,44.6
2017-01-17T14:18:55.090Z,44.79
2017-01-17T14:20:05.847Z,44.89
2017-01-17T14:21:15.568Z,44.79
2017-01-17T14:22:25.296Z,44.7
2017-01-17T14:23:35.009Z,44.89
2017-01-17T14:24:44.734Z,44.89
2017-01-17T14:25:54.072Z,44.89
2017-01-17T14:27:03.800Z,44.89
2017-01-17T14:28:13.961Z,44.89
2017-01-17T14:29:23.238Z,44.7
2017-01-17T14:30:33.399Z,44.79
2017-01-17T14:31:43.644Z,44.7
2017-01-17T14:32:53.369Z,44.79
2017-01-17T14:34:03.103Z,44.7
2017-01-17T14:35:12.380Z,44.7
2017-01-17T14:36:22.093Z,44.6
2017-01-17T14:37:32.746Z,44.79
2017-01-17T14:38:42.459Z,44.79
2017-01-17T14:39:51.741Z,44.58
2017-01-17T14:41:01.022Z,44.87
2017-01-17T14:42:10.748Z,44.96
2017-01-17T14:43:20.960Z,44.51
2017-01-17T14:44:30.686Z,44.58
2017-01-17T14:45:40.414Z,44.79
2017-01-17T14:46:50.140Z,44.89
2017-01-17T14:47:59.870Z,45.06
2017-01-17T14:49:09.207Z,44.87
2017-01-17T14:50:18.924Z,44.96
2017-01-17T14:51:28.642Z,44.96
2017-01-17T14:52:39.251Z,44.77
2017-01-17T14:53:48.533Z,44.96
2017-01-17T14:54:59.646Z,44.87
2017-01-17T14:56:09.824Z,44.87
2017-01-17T14:57:20.425Z,44.87
2017-01-17T14:58:30.146Z,44.87
2017-01-17T14:59:39.875Z,45.06
2017-01-17T15:00:49.200Z,44.96
2017-01-17T15:01:58.921Z,44.77
2017-01-17T15:03:09.095Z,44.67
2017-01-17T15:04:18.816Z,45.06